createdAt,value
2023-02-25T00:01:05.721Z,30.01
2023-02-25T00:03:33.862Z,29.98
2023-02-25T00:06:03.788Z,30.08
2023-02-25T00:08:31.502Z,30.32
2023-02-25T00:10:59.609Z,30.21
2023-02-25T00:13:27.276Z,29.99
2023-02-25T00:15:54.972Z,30.00
2023-02-25T00:18:22.638Z,30.35
2023-02-25T00:20:50.369Z,30.04
2023-02-25T00:23:19.367Z,30.26
2023-02-25T00:25:47.020Z,30.24
2023-02-25T00:28:14.762Z,30.15
2023-02-25T00:30:42.666Z,30.13
2023-02-25T00:33:11.736Z,30.23
2023-02-25T00:35:39.932Z,30.21
2023-02-25T00:38:15.754Z,30.10
2023-02-25T00:40:45.334Z,30.25
2023-02-25T00:43:13.034Z,30.02
2023-02-25T00:45:41.123Z,30.03
2023-02-25T00:48:08.794Z,29.86
2023-02-25T00:50:36.413Z,30.26
2023-02-25T00:53:04.048Z,30.05
2023-02-25T00:55:33.437Z,30.16
2023-02-25T00:58:02.790Z,30.04
2023-02-25T01:00:35.923Z,30.28
2023-02-25T01:03:05.835Z,30.23
2023-02-25T01:05:33.494Z,30.26
2023-02-25T01:08:01.227Z,30.09
2023-02-25T01:10:29.115Z,30.08
2023-02-25T01:12:56.793Z,30.19
2023-02-25T01:15:25.847Z,30.40
2023-02-25T01:17:53.570Z,30.28
2023-02-25T01:20:22.502Z,30.20
2023-02-25T01:22:50.212Z,30.24
2023-02-25T01:25:18.607Z,30.36
2023-02-25T01:27:46.300Z,30.11
2023-02-25T01:30:14.252Z,30.31
2023-02-25T01:32:43.460Z,30.21
2023-02-25T01:35:11.214Z,30.34
2023-02-25T01:37:38.841Z,30.04
2023-02-25T01:40:07.103Z,30.26
2023-02-25T01:42:34.848Z,30.28
2023-02-25T01:45:23.602Z,30.11
2023-02-25T01:47:53.262Z,30.10
2023-02-25T01:50:20.999Z,30.05
2023-02-25T01:52:48.765Z,30.18
2023-02-25T01:55:16.376Z,30.33
2023-02-25T01:57:44.563Z,29.94
2023-02-25T02:00:16.117Z,30.35
2023-02-25T02:02:44.718Z,30.23
2023-02-25T02:05:14.570Z,30.32
2023-02-25T02:07:42.349Z,30.06
2023-02-25T02:10:10.612Z,30.36
2023-02-25T02:12:39.449Z,30.17
2023-02-25T02:15:07.799Z,30.11
2023-02-25T02:17:36.835Z,30.18
2023-02-25T02:20:13.148Z,30.30
2023-02-25T02:22:45.282Z,30.07
2023-02-25T02:25:40.034Z,30.27
2023-02-25T02:28:37.665Z,30.28
2023-02-25T02:31:21.713Z,30.29
2023-02-25T02:33:51.134Z,30.30
2023-02-25T02:36:20.852Z,30.21
2023-02-25T02:38:50.010Z,30.06
2023-02-25T02:41:18.883Z,30.24
2023-02-25T02:43:47.110Z,30.37
2023-02-25T02:46:16.213Z,30.17
2023-02-25T02:48:45.874Z,30.37
2023-02-25T02:51:15.473Z,30.26
2023-02-25T02:53:43.611Z,30.18
2023-02-25T02:56:13.011Z,30.32
2023-02-25T02:58:41.990Z,30.18
2023-02-25T03:01:10.727Z,30.31
2023-02-25T03:03:39.769Z,30.00
2023-02-25T03:06:09.991Z,30.21
2023-02-25T03:08:39.641Z,30.06
2023-02-25T03:11:07.318Z,30.17
2023-02-25T03:13:34.959Z,30.24
2023-02-25T03:16:02.607Z,29.99
2023-02-25T03:18:32.512Z,30.09
2023-02-25T03:21:00.533Z,30.44
2023-02-25T03:23:29.928Z,30.28
2023-02-25T03:25:59.654Z,30.31
2023-02-25T03:28:27.926Z,30.24
2023-02-25T03:30:58.460Z,30.09
2023-02-25T03:33:28.073Z,30.32
2023-02-25T03:35:55.818Z,30.16
2023-02-25T03:38:24.032Z,30.48
2023-02-25T03:40:53.053Z,30.17
2023-02-25T03:43:22.777Z,30.34
2023-02-25T03:45:50.557Z,30.16
2023-02-25T03:48:19.260Z,30.44
2023-02-25T03:50:48.413Z,30.53
2023-02-25T03:53:16.106Z,30.37
2023-02-25T03:55:43.839Z,30.46
2023-02-25T03:58:14.706Z,30.46
2023-02-25T04:00:42.448Z,30.37
2023-02-25T04:03:10.747Z,30.45
2023-02-25T04:05:38.396Z,30.45
2023-02-25T04:08:06.763Z,30.64
2023-02-25T04:10:34.582Z,30.43
2023-02-25T04:13:02.284Z,30.44
2023-02-25T04:15:31.376Z,30.57
2023-02-25T04:17:59.107Z,30.71
2023-02-25T04:20:29.864Z,30.54
2023-02-25T04:22:57.591Z,30.82
2023-02-25T04:25:25.268Z,30.87
2023-02-25T04:27:52.894Z,30.94
2023-02-25T04:30:20.672Z,30.88
2023-02-25T04:32:49.753Z,31.11
2023-02-25T04:35:17.524Z,30.97
2023-02-25T04:37:45.537Z,30.96
2023-02-25T04:40:15.150Z,31.16
2023-02-25T04:42:42.878Z,31.14
2023-02-25T04:45:11.090Z,31.31
2023-02-25T04:47:38.780Z,31.41
2023-02-25T04:50:08.503Z,31.44
2023-02-25T04:52:36.162Z,31.28
2023-02-25T04:55:03.878Z,31.45
2023-02-25T04:57:31.603Z,31.36
2023-02-25T04:59:59.298Z,31.44
2023-02-25T05:02:27.019Z,31.53
2023-02-25T05:04:54.745Z,31.40
2023-02-25T05:07:23.866Z,31.74
2023-02-25T05:09:51.948Z,31.82
2023-02-25T05:12:19.775Z,31.37
2023-02-25T05:14:47.651Z,31.73
2023-02-25T05:17:15.874Z,31.63
2023-02-25T05:19:43.689Z,31.87
2023-02-25T05:22:11.566Z,31.88
2023-02-25T05:24:40.619Z,31.61
2023-02-25T05:27:09.257Z,32.01
2023-02-25T05:29:37.146Z,31.86
2023-02-25T05:32:05.156Z,31.82
2023-02-25T05:34:33.054Z,32.04
2023-02-25T05:37:00.661Z,32.18
2023-02-25T05:39:28.289Z,32.44
2023-02-25T05:41:57.308Z,32.11
2023-02-25T05:44:25.076Z,32.28
2023-02-25T05:46:52.748Z,32.25
2023-02-25T05:49:20.458Z,32.25
2023-02-25T05:51:48.091Z,32.54
2023-02-25T05:54:15.746Z,32.37
2023-02-25T05:56:44.402Z,32.37
2023-02-25T05:59:13.449Z,32.63
2023-02-25T06:01:41.931Z,32.43
2023-02-25T06:04:09.666Z,32.56
2023-02-25T06:06:37.679Z,32.52
2023-02-25T06:09:05.927Z,32.55
2023-02-25T06:11:33.626Z,32.65
2023-02-25T06:14:01.314Z,32.66
2023-02-25T06:16:31.906Z,32.72
2023-02-25T06:19:01.239Z,32.66
2023-02-25T06:21:29.060Z,32.73
2023-02-25T06:23:56.778Z,32.81
2023-02-25T06:26:24.685Z,32.75
2023-02-25T06:28:52.538Z,33.20
2023-02-25T06:31:20.374Z,33.09
2023-02-25T06:33:50.789Z,33.07
2023-02-25T06:36:20.744Z,33.19
2023-02-25T06:38:48.525Z,33.29
2023-02-25T06:41:16.770Z,33.30
2023-02-25T06:43:44.533Z,33.20
2023-02-25T06:46:12.819Z,33.30
2023-02-25T06:48:40.617Z,33.37
2023-02-25T06:51:11.616Z,33.38
2023-02-25T06:53:39.473Z,33.25
2023-02-25T06:56:08.441Z,33.47
2023-02-25T06:58:36.155Z,33.56
2023-02-25T07:01:06.406Z,33.33
2023-02-25T07:03:34.153Z,33.11
2023-02-25T07:06:01.893Z,33.26
2023-02-25T07:08:31.385Z,33.42
2023-02-25T07:11:10.453Z,33.29
2023-02-25T07:13:38.125Z,33.38
2023-02-25T07:16:06.159Z,33.48
2023-02-25T07:18:34.206Z,33.49
2023-02-25T07:21:01.830Z,33.57
2023-02-25T07:23:29.520Z,33.51
2023-02-25T07:25:58.629Z,33.50
2023-02-25T07:28:26.353Z,33.44
2023-02-25T07:30:54.182Z,33.71
2023-02-25T07:33:21.956Z,33.80
2023-02-25T07:35:49.562Z,33.76
2023-02-25T07:38:18.020Z,33.79
2023-02-25T07:40:45.743Z,33.78
2023-02-25T07:43:16.721Z,33.85
2023-02-25T07:45:44.424Z,33.81
2023-02-25T07:48:12.507Z,33.82
2023-02-25T07:50:40.145Z,33.62
2023-02-25T07:53:09.168Z,33.89
2023-02-25T07:55:36.957Z,33.69
2023-02-25T07:58:07.161Z,33.94
2023-02-25T08:00:39.249Z,33.71
2023-02-25T08:03:06.951Z,34.02
2023-02-25T08:05:35.364Z,33.71
2023-02-25T08:08:02.998Z,33.82
2023-02-25T08:10:30.619Z,33.69
2023-02-25T08:12:58.856Z,33.97
2023-02-25T08:15:26.565Z,33.91
2023-02-25T08:17:56.601Z,33.95
2023-02-25T08:20:25.373Z,33.86
2023-02-25T08:22:53.061Z,33.79
2023-02-25T08:25:21.535Z,34.00
2023-02-25T08:27:49.171Z,34.12
2023-02-25T08:30:18.885Z,33.90
2023-02-25T08:32:46.712Z,34.03
2023-02-25T08:35:16.609Z,33.99
2023-02-25T08:37:45.337Z,34.13
2023-02-25T08:40:14.676Z,33.97
2023-02-25T08:42:42.399Z,33.80
2023-02-25T08:45:11.032Z,34.18
2023-02-25T08:47:38.653Z,34.14
2023-02-25T08:50:06.835Z,34.10
2023-02-25T08:52:36.576Z,34.04
2023-02-25T08:55:05.055Z,34.03
2023-02-25T08:57:33.920Z,34.27
2023-02-25T09:00:01.654Z,34.13
2023-02-25T09:02:30.817Z,34.31
2023-02-25T09:04:58.477Z,34.13
2023-02-25T09:07:26.310Z,34.29
2023-02-25T09:09:56.210Z,34.23
2023-02-25T09:12:24.888Z,34.08
2023-02-25T09:14:53.385Z,34.13
2023-02-25T09:17:21.054Z,33.93
2023-02-25T09:19:50.019Z,34.04
2023-02-25T09:22:19.725Z,34.23
2023-02-25T09:24:47.490Z,34.37
2023-02-25T09:27:17.255Z,34.22
2023-02-25T09:29:44.970Z,34.49
2023-02-25T09:32:18.379Z,34.32
2023-02-25T09:34:46.599Z,34.38
2023-02-25T09:37:15.797Z,34.12
2023-02-25T09:39:43.671Z,34.41
2023-02-25T09:42:11.788Z,34.54
2023-02-25T09:44:42.340Z,34.35
2023-02-25T09:47:11.842Z,34.29
2023-02-25T09:49:39.737Z,34.33
2023-02-25T09:52:09.512Z,34.58
2023-02-25T09:54:40.612Z,34.59
2023-02-25T09:57:09.248Z,34.45
2023-02-25T09:59:36.976Z,34.40
2023-02-25T10:02:07.912Z,34.62
2023-02-25T10:04:38.938Z,34.79
2023-02-25T10:07:08.640Z,34.67
2023-02-25T10:09:39.203Z,34.96
2023-02-25T10:12:10.020Z,34.91
2023-02-25T10:14:48.973Z,34.80
2023-02-25T10:17:20.180Z,34.78
2023-02-25T10:19:52.950Z,34.68
2023-02-25T10:22:29.754Z,34.68
2023-02-25T10:25:00.742Z,34.92
2023-02-25T10:27:30.292Z,34.71
2023-02-25T10:30:01.598Z,34.95
2023-02-25T10:32:32.649Z,34.69
2023-02-25T10:35:01.004Z,34.79
2023-02-25T10:37:31.989Z,35.02
2023-02-25T10:39:59.989Z,34.74
2023-02-25T10:42:28.436Z,34.88
2023-02-25T10:44:56.187Z,34.65
2023-02-25T10:47:27.288Z,34.59
2023-02-25T10:50:16.305Z,34.76
2023-02-25T10:52:56.240Z,35.00
2023-02-25T10:55:32.672Z,34.48
2023-02-25T10:58:02.016Z,34.77
2023-02-25T11:00:30.077Z,34.86
2023-02-25T11:02:58.365Z,34.82
2023-02-25T11:05:38.118Z,34.77
2023-02-25T11:08:07.823Z,34.81
2023-02-25T11:10:36.309Z,34.94
2023-02-25T11:13:06.074Z,35.06
2023-02-25T11:15:45.279Z,34.71
2023-02-25T11:18:18.743Z,35.02
2023-02-25T11:20:50.708Z,34.82
2023-02-25T11:23:23.344Z,35.05
2023-02-25T11:25:53.828Z,35.01
2023-02-25T11:28:25.403Z,35.06
2023-02-25T11:30:53.212Z,35.07
2023-02-25T11:33:23.211Z,35.07
2023-02-25T11:35:57.138Z,34.76
2023-02-25T11:38:26.024Z,35.04
2023-02-25T11:40:53.669Z,34.76
2023-02-25T11:45:57.560Z,34.83
2023-02-25T11:48:27.024Z,34.50
2023-02-25T11:50:58.793Z,34.45
2023-02-25T11:53:32.156Z,34.68
2023-02-25T11:56:02.062Z,34.65
2023-02-25T11:58:33.108Z,34.68
2023-02-25T12:01:01.432Z,34.51
2023-02-25T12:03:47.832Z,34.88
2023-02-25T12:06:22.551Z,34.74
2023-02-25T12:08:53.002Z,35.00
2023-02-25T12:11:40.402Z,34.68
2023-02-25T12:14:12.918Z,34.69
2023-02-25T12:17:01.299Z,34.66
2023-02-25T12:19:34.893Z,34.62
2023-02-25T12:22:17.371Z,34.64
2023-02-25T12:24:52.436Z,34.64
2023-02-25T12:27:47.313Z,34.59
2023-02-25T12:30:22.654Z,34.50
2023-02-25T12:32:56.176Z,34.53
2023-02-25T12:35:31.826Z,34.52
2023-02-25T12:38:23.268Z,34.29
2023-02-25T12:41:00.961Z,34.37
2023-02-25T12:43:31.488Z,34.17
2023-02-25T12:46:17.194Z,34.18
2023-02-25T12:48:51.155Z,34.20
2023-02-25T12:51:32.981Z,34.02
2023-02-25T12:54:04.083Z,34.05
2023-02-25T12:56:44.041Z,33.93
2023-02-25T12:59:13.705Z,33.98
2023-02-25T13:01:55.288Z,33.72
2023-02-25T13:04:39.501Z,33.81
2023-02-25T13:07:25.183Z,33.60
2023-02-25T13:09:56.346Z,33.45
2023-02-25T13:12:32.195Z,33.57
2023-02-25T13:15:02.251Z,33.46
2023-02-25T13:17:52.144Z,33.48
2023-02-25T13:20:22.303Z,33.34
2023-02-25T13:22:54.076Z,33.37
2023-02-25T13:28:11.153Z,33.21
2023-02-25T13:30:44.797Z,33.38
2023-02-25T13:33:22.208Z,33.17
2023-02-25T13:35:54.760Z,33.09
2023-02-25T13:38:29.725Z,33.14
2023-02-25T13:41:00.283Z,33.21
2023-02-25T13:43:48.262Z,33.30
2023-02-25T13:46:48.706Z,33.17
2023-02-25T13:49:34.274Z,33.01
2023-02-25T13:52:10.416Z,33.30
2023-02-25T13:54:43.026Z,33.07
2023-02-25T13:57:12.986Z,33.05
2023-02-25T13:59:48.059Z,33.06
2023-02-25T14:02:20.332Z,32.86
2023-02-25T14:05:02.337Z,32.82
2023-02-25T14:07:42.869Z,32.83
2023-02-25T14:10:29.230Z,32.99
2023-02-25T14:13:02.245Z,32.80
2023-02-25T14:15:34.307Z,32.82
2023-02-25T14:18:08.751Z,32.63
2023-02-25T14:20:40.747Z,32.59
2023-02-25T14:23:11.831Z,32.57
2023-02-25T14:25:41.636Z,32.46
2023-02-25T14:28:13.402Z,32.67
2023-02-25T14:30:44.352Z,32.65
2023-02-25T14:33:18.395Z,32.68
2023-02-25T14:35:57.692Z,32.62
2023-02-25T14:38:27.730Z,32.39
2023-02-25T14:40:57.132Z,32.39
2023-02-25T14:43:33.379Z,32.33
2023-02-25T14:46:02.703Z,32.66
2023-02-25T14:48:31.285Z,32.53
2023-02-25T14:51:05.680Z,32.54
2023-02-25T14:53:44.247Z,32.32
2023-02-25T14:56:20.285Z,32.47
2023-02-25T14:58:54.981Z,32.49
2023-02-25T15:01:43.306Z,32.31
2023-02-25T15:04:29.444Z,32.28
2023-02-25T15:07:05.966Z,32.38
2023-02-25T15:10:00.503Z,32.48
2023-02-25T15:12:34.677Z,32.36
2023-02-25T15:15:10.265Z,32.53
2023-02-25T15:17:57.784Z,32.30
2023-02-25T15:20:32.965Z,32.46
2023-02-25T15:23:10.210Z,32.45
2023-02-25T15:25:42.156Z,32.27
2023-02-25T15:28:28.959Z,32.49
2023-02-25T15:31:07.095Z,32.42
2023-02-25T15:33:35.962Z,32.18
2023-02-25T15:36:03.758Z,32.32
2023-02-25T15:38:44.346Z,32.40
2023-02-25T15:41:30.038Z,32.22
2023-02-25T15:43:59.288Z,32.20
2023-02-25T15:46:32.389Z,32.05
2023-02-25T15:49:06.413Z,32.07
2023-02-25T15:51:40.997Z,32.23
2023-02-25T15:54:16.450Z,32.10
2023-02-25T15:56:48.121Z,32.03
2023-02-25T15:59:35.386Z,32.31
2023-02-25T16:02:03.069Z,32.22
2023-02-25T16:04:46.252Z,32.21
2023-02-25T16:07:14.713Z,31.96
2023-02-25T16:09:44.013Z,31.86
2023-02-25T16:12:12.776Z,31.79
2023-02-25T16:14:41.004Z,32.02
2023-02-25T16:17:12.521Z,32.16
2023-02-25T16:19:40.218Z,32.03
2023-02-25T16:22:10.215Z,31.71
2023-02-25T16:24:42.462Z,31.65
2023-02-25T16:27:13.778Z,31.77
2023-02-25T16:29:46.799Z,31.79
2023-02-25T16:32:21.882Z,31.75
2023-02-25T16:34:55.516Z,31.66
2023-02-25T16:37:24.846Z,31.77
2023-02-25T16:39:52.759Z,31.83
2023-02-25T16:42:22.689Z,31.64
2023-02-25T16:44:56.801Z,31.53
2023-02-25T16:47:26.260Z,31.56
2023-02-25T16:49:54.244Z,31.43
2023-02-25T16:52:24.597Z,31.70
2023-02-25T16:54:54.475Z,31.65
2023-02-25T16:57:24.797Z,31.49
2023-02-25T16:59:52.629Z,31.54
2023-02-25T17:02:24.682Z,31.75
2023-02-25T17:04:52.835Z,31.78
2023-02-25T17:07:23.370Z,31.72
2023-02-25T17:09:51.631Z,31.55
2023-02-25T17:12:20.106Z,31.63
2023-02-25T17:14:50.574Z,31.70
2023-02-25T17:17:19.497Z,31.69
2023-02-25T17:19:49.518Z,31.69
2023-02-25T17:22:19.562Z,31.62
2023-02-25T17:24:48.102Z,31.40
2023-02-25T17:27:15.812Z,31.47
2023-02-25T17:29:44.480Z,31.66
2023-02-25T17:32:21.735Z,31.49
2023-02-25T17:34:50.355Z,31.46
2023-02-25T17:37:18.026Z,31.53
2023-02-25T17:39:45.809Z,31.63
2023-02-25T17:42:33.264Z,31.40
2023-02-25T17:45:01.589Z,31.58
2023-02-25T17:47:31.796Z,31.26
2023-02-25T17:50:00.212Z,31.51
2023-02-25T17:52:29.195Z,31.45
2023-02-25T17:54:59.264Z,31.48
2023-02-25T17:57:28.258Z,31.52
2023-02-25T17:59:57.018Z,31.40
2023-02-25T18:02:30.464Z,31.35
2023-02-25T18:05:16.915Z,31.30
2023-02-25T18:07:46.605Z,31.16
2023-02-25T18:10:29.188Z,31.16
2023-02-25T18:12:57.606Z,31.47
2023-02-25T18:15:25.483Z,31.39
2023-02-25T18:17:54.295Z,31.28
2023-02-25T18:20:28.811Z,31.20
2023-02-25T18:22:57.290Z,31.31
2023-02-25T18:25:31.308Z,31.24
2023-02-25T18:28:01.208Z,31.51
2023-02-25T18:30:29.462Z,31.30
2023-02-25T18:32:57.479Z,31.46
2023-02-25T18:35:26.192Z,31.36
2023-02-25T18:37:55.987Z,31.23
2023-02-25T18:40:25.358Z,31.36
2023-02-25T18:42:53.055Z,31.38
2023-02-25T18:45:21.610Z,31.32
2023-02-25T18:47:50.377Z,31.24
2023-02-25T18:50:18.158Z,31.40
2023-02-25T18:52:47.587Z,31.37
2023-02-25T18:55:19.099Z,31.32
2023-02-25T18:57:47.706Z,31.33
2023-02-25T19:00:18.808Z,31.34
2023-02-25T19:02:48.323Z,31.09
2023-02-25T19:05:16.113Z,31.18
2023-02-25T19:07:43.870Z,30.91
2023-02-25T19:10:14.333Z,31.14
2023-02-25T19:12:43.404Z,31.04
2023-02-25T19:15:15.482Z,31.00
2023-02-25T19:17:43.152Z,30.77
2023-02-25T19:20:11.723Z,31.15
2023-02-25T19:22:42.773Z,30.82
2023-02-25T19:25:12.353Z,31.08
2023-02-25T19:27:39.979Z,30.95
2023-02-25T19:30:13.167Z,30.95
2023-02-25T19:32:40.884Z,30.72
2023-02-25T19:35:10.496Z,30.96
2023-02-25T19:37:39.039Z,30.92
2023-02-25T19:40:10.330Z,30.66
2023-02-25T19:42:38.844Z,30.94
2023-02-25T19:45:06.985Z,30.81
2023-02-25T19:47:36.020Z,30.67
2023-02-25T19:50:04.524Z,30.79
2023-02-25T19:52:33.320Z,30.80
2023-02-25T19:55:01.816Z,30.67
2023-02-25T19:57:29.561Z,30.78
2023-02-25T19:59:57.359Z,30.94
2023-02-25T20:02:25.935Z,30.60
2023-02-25T20:04:54.984Z,30.79
2023-02-25T20:07:22.739Z,30.58
2023-02-25T20:09:51.692Z,30.71
2023-02-25T20:12:19.307Z,30.62
2023-02-25T20:14:46.898Z,30.48
2023-02-25T20:17:18.697Z,30.62
2023-02-25T20:19:47.666Z,30.47
2023-02-25T20:22:17.140Z,30.56
2023-02-25T20:24:46.629Z,30.57
2023-02-25T20:27:14.342Z,30.43
2023-02-25T20:29:42.140Z,30.56
2023-02-25T20:32:11.374Z,30.65
2023-02-25T20:34:39.362Z,30.54
2023-02-25T20:37:08.692Z,30.39
2023-02-25T20:39:44.073Z,30.55
2023-02-25T20:42:13.611Z,30.45
2023-02-25T20:44:41.463Z,30.37
2023-02-25T20:47:09.234Z,30.46
2023-02-25T20:49:39.638Z,30.40
2023-02-25T20:52:07.529Z,30.37
2023-02-25T20:54:37.813Z,30.31
2023-02-25T20:57:06.860Z,30.48
2023-02-25T20:59:35.125Z,30.21
2023-02-25T21:02:03.683Z,30.37
2023-02-25T21:04:31.473Z,30.20
2023-02-25T21:06:59.202Z,30.15
2023-02-25T21:09:27.769Z,30.13
2023-02-25T21:11:55.408Z,30.21
2023-02-25T21:14:24.508Z,30.31
2023-02-25T21:16:56.810Z,30.21
2023-02-25T21:19:24.876Z,30.26
2023-02-25T21:21:53.405Z,30.25
2023-02-25T21:24:21.203Z,30.12
2023-02-25T21:26:48.944Z,30.24
2023-02-25T21:29:17.658Z,30.28
2023-02-25T21:31:46.836Z,30.16
2023-02-25T21:34:14.976Z,30.10
2023-02-25T21:36:47.670Z,30.24
2023-02-25T21:39:15.335Z,30.12
2023-02-25T21:41:47.700Z,30.15
2023-02-25T21:44:15.372Z,30.09
2023-02-25T21:46:43.940Z,29.93
2023-02-25T21:49:12.939Z,30.03
2023-02-25T21:51:40.592Z,29.92
2023-02-25T21:54:09.154Z,30.16
2023-02-25T21:56:36.808Z,30.15
2023-02-25T21:59:06.269Z,30.01
2023-02-25T22:01:34.935Z,30.11
2023-02-25T22:04:02.699Z,29.91
2023-02-25T22:06:32.696Z,29.88
2023-02-25T22:09:00.452Z,29.99
2023-02-25T22:11:29.703Z,30.11
2023-02-25T22:13:57.417Z,30.02
2023-02-25T22:16:25.577Z,30.12
2023-02-25T22:18:54.220Z,29.99
2023-02-25T22:21:23.351Z,30.17
2023-02-25T22:23:52.716Z,30.13
2023-02-25T22:26:21.892Z,30.28
2023-02-25T22:28:49.653Z,30.13
2023-02-25T22:31:17.980Z,30.09
2023-02-25T22:33:46.789Z,29.77
2023-02-25T22:36:14.708Z,29.74
2023-02-25T22:38:42.972Z,29.75
2023-02-25T22:41:14.356Z,30.15
2023-02-25T22:43:42.065Z,30.02
2023-02-25T22:46:10.842Z,29.91
2023-02-25T22:48:38.693Z,29.88
2023-02-25T22:51:07.324Z,30.02
2023-02-25T22:53:35.637Z,29.84
2023-02-25T22:56:03.363Z,30.04
2023-02-25T22:58:33.125Z,29.82
2023-02-25T23:01:00.724Z,30.12
2023-02-25T23:03:28.491Z,30.04
2023-02-25T23:05:56.892Z,29.94
2023-02-25T23:08:24.764Z,29.89
2023-02-25T23:10:52.420Z,29.84
2023-02-25T23:13:20.781Z,29.94
2023-02-25T23:15:50.305Z,30.13
2023-02-25T23:18:19.063Z,30.08
2023-02-25T23:20:49.316Z,30.18
2023-02-25T23:23:17.603Z,29.95
2023-02-25T23:25:46.684Z,30.15
2023-02-25T23:28:14.352Z,29.81
2023-02-25T23:30:42.032Z,29.68
2023-02-25T23:33:12.509Z,29.90
2023-02-25T23:35:41.461Z,30.17
2023-02-25T23:38:09.528Z,30.17
2023-02-25T23:40:37.279Z,30.01
2023-02-25T23:43:05.003Z,29.87
2023-02-25T23:45:32.885Z,29.86
2023-02-25T23:48:00.601Z,29.82
2023-02-25T23:50:29.770Z,29.85
2023-02-25T23:52:57.561Z,29.93
2023-02-25T23:55:25.704Z,29.94
2023-02-25T23:57:53.411Z,29.95
